LFKC/CLY METAR and TAF weather

Enter ICAO airport designator
Station Type Date Time Source
LFKC METAR 2022/01/19 19:30 UTC NOAA

LFKC 191930Z AUTO 21006KT 170V250 9999 OVC052 12/05 Q1025


Station Type Date Time Source
LFKC Decoded METAR 2022/01/19 19:30 UTC NOAA

Calvi, France (LFKC) 42-32N 008-48E 58M
Jan 19, 2022 - 02:30 PM EST / 2022.01.19 1930 UTC
Wind: from the SSW (210 degrees) at 7 MPH (6 KT) (direction variable):0
Visibility: greater than 7 mile(s):0
Sky conditions: overcast
Temperature: 53 F (12 C)
Dew Point: 41 F (5 C)
Relative Humidity: 62%
Pressure (altimeter): 30.27 in. Hg (1025 hPa)
ob: LFKC 191930Z AUTO 21006KT 170V250 9999 OVC052 12/05 Q1025
cycle: 19

Station Type Date Time Source
LFKC TAF 2022/01/19 19:46 UTC NOAA

TAF LFKC 191907Z 1919/2015 CNL

Example: see airport list